Airfield :







YOU CAN JOIN US ON...

 
LOGIN :

Register | Disclaimer

   EN    FR    IT 

 









Legend :    VFR   Marginal VFR   IFR   Intensive IFR   Very Intensive IFR
Visi :
Ceiling :
>= 8 km
>= 3000ft
5 to 8 km
1000 to 3000 ft
1500m to 5 km
500 to 1000 ft
800 to 1500m
200 to 500 ft
< 800m
< 200 ft
Symbols :   Thunderstorms  Fog  Heavy snow  Heavy precipitations  Wind > 20 kt







- Airport Elevation : 270 ft
- IATA code : YMX


CYMX - Montreal International Mirabel

CURRENT METAR :
  • 171826Z 25007KT 220V280 20SM FEW030TCU SCT100 BKN210 BKN250 27/22 A2983 RMK TCU2AC2CS1CI2 SLP102 DENSITY ALT 1800FT

EXPIRED METARs :
  • 171800Z 23007KT 190V290 25SM BKN030TCU BKN090 OVC260 27/20 A2984 RMK TCU5AC1CI2 OCNL -SHRA SLP104 DENSITY ALT 1800FT
  • 171700Z 26005KT 190V310 20SM -SHRA BKN027 OVC260 27/22 A2984 RMK CU7CI1 VIS NE QUAD 2 SLP104 DENSITY ALT 1900FT
  • 171600Z 21007KT 190V270 20SM FEW020TCU SCT080 BKN250 27/23 A2983 RMK TCU2AC2CI2 SLP102 DENSITY ALT 1800FT

TAF TAF CYMX
Valid from the 17 at 18:00 until the 18 at 18:00 UTC


171738Z 1718/1818 27008KT P6SM BKN030
TEMPO 1718/1720 BKN020
BECMG 1718/1720 30005KT
FM180000 07005KT P6SM SCT040
FM180300 04005KT P6SM SKC
BECMG 1815/1817 09010KT RMK NXT FCST BY 180000Z
CZUL FIR / North America



MET'MAP, your aeronautical weather chart ! - Copyright ORBIFLY December 2007 - Disclaimer

ORBIFLY MET'MAP TEAM :

Programming & Development : Alexandra Zaïnal
Concept & Development : Baudouin d'Aumeries
Co-Development & Prog : Marc-Olivier Méhu
Technical & hardware support : Manuel Goepfert

Contact : metmap@orbifly.com




SOURCES & CREDITS :

   NOAA